createdAt,value
2019-06-07T00:04:39.384Z,25.4
2019-06-07T00:09:50.105Z,25.4
2019-06-07T00:15:00.818Z,25.4
2019-06-07T00:20:22.730Z,25.4
2019-06-07T00:25:34.953Z,25.4
2019-06-07T00:30:52.866Z,25.4
2019-06-07T00:36:03.915Z,25.4
2019-06-07T00:41:21.862Z,25.4
2019-06-07T00:46:33.265Z,25.4
2019-06-07T00:51:51.885Z,25.4
2019-06-07T00:57:04.510Z,25.4
2019-06-07T01:02:22.136Z,25.4
2019-06-07T01:07:42.451Z,25.4
2019-06-07T01:12:53.932Z,25.4
2019-06-07T01:18:43.321Z,25.4
2019-06-07T01:24:12.685Z,25.4
2019-06-07T01:29:30.795Z,25.4
2019-06-07T01:34:42.560Z,25.4
2019-06-07T01:39:53.838Z,25.4
2019-06-07T01:45:05.295Z,25.4
2019-06-07T01:50:19.727Z,25.4
2019-06-07T01:55:35.911Z,25.4
2019-06-07T02:00:47.479Z,25.4
2019-06-07T02:05:58.473Z,25.4
2019-06-07T02:11:09.194Z,25.4
2019-06-07T02:16:24.694Z,25.4
2019-06-07T02:21:43.501Z,25.4
2019-06-07T02:26:55.282Z,25.4
2019-06-07T02:32:06.834Z,25.4
2019-06-07T02:37:18.149Z,25.4
2019-06-07T02:42:40.136Z,25.4
2019-06-07T02:47:53.836Z,25.4
2019-06-07T02:53:05.165Z,25.4
2019-06-07T02:58:16.170Z,25.4
2019-06-07T03:03:33.028Z,25.4
2019-06-07T03:08:50.955Z,25.4
2019-06-07T03:14:02.510Z,25.4
2019-06-07T03:19:13.788Z,25.4
2019-06-07T03:24:24.517Z,25.4
2019-06-07T03:29:36.785Z,25.4
2019-06-07T03:34:48.011Z,25.4
2019-06-07T03:39:59.705Z,25.4
2019-06-07T03:45:10.955Z,25.4
2019-06-07T03:50:22.234Z,25.4
2019-06-07T03:55:41.095Z,25.4
2019-06-07T04:00:52.440Z,25.4
2019-06-07T04:06:03.681Z,25.4
2019-06-07T04:11:14.991Z,25.4
2019-06-07T04:16:28.780Z,25.4
2019-06-07T04:21:43.363Z,25.4
2019-06-07T04:26:54.083Z,25.4
2019-06-07T04:32:04.798Z,25.4
2019-06-07T04:37:15.519Z,25.3
2019-06-07T04:42:26.516Z,25.1
2019-06-07T04:47:42.230Z,25.1
2019-06-07T04:52:53.702Z,25
2019-06-07T04:58:05.265Z,25.1
2019-06-07T05:03:16.837Z,25.1
2019-06-07T05:08:33.431Z,25.2
2019-06-07T05:13:48.917Z,25.2
2019-06-07T05:19:00.222Z,25.3
2019-06-07T05:24:11.259Z,25.3
2019-06-07T05:29:22.804Z,25.3
2019-06-07T05:34:39.190Z,25.3
2019-06-07T05:39:57.169Z,25.3
2019-06-07T05:45:08.814Z,25.4
2019-06-07T05:50:57.412Z,25.4
2019-06-07T05:56:08.832Z,25.4
2019-06-07T06:01:55.883Z,25.4
2019-06-07T06:07:20.223Z,25.3
2019-06-07T06:12:42.222Z,25.2
2019-06-07T06:18:02.259Z,25.2
2019-06-07T06:23:13.252Z,25.2
2019-06-07T06:28:24.260Z,25.2
2019-06-07T06:33:35.585Z,25.1
2019-06-07T06:38:51.507Z,25.1
2019-06-07T06:44:02.315Z,25.2
2019-06-07T06:49:13.039Z,25
2019-06-07T06:54:46.485Z,25.1
2019-06-07T07:00:10.149Z,25.1
2019-06-07T07:05:20.859Z,25.1
2019-06-07T07:10:32.143Z,25.1
2019-06-07T07:15:47.352Z,25.2
2019-06-07T07:21:08.056Z,25.1
2019-06-07T07:26:18.783Z,25.1
2019-06-07T07:31:30.131Z,25.1
2019-06-07T07:36:41.465Z,25.2
2019-06-07T07:42:21.442Z,25.2
2019-06-07T07:47:32.806Z,25.2
2019-06-07T07:52:53.399Z,25.2
2019-06-07T07:58:11.533Z,25.2
2019-06-07T08:03:22.534Z,25.3
2019-06-07T08:08:33.540Z,25.2
2019-06-07T08:13:45.671Z,25.2
2019-06-07T08:19:04.463Z,25.3
2019-06-07T08:24:15.785Z,25.3
2019-06-07T08:29:43.743Z,25.3
2019-06-07T08:35:07.386Z,25.2
2019-06-07T08:40:18.641Z,25.3
2019-06-07T08:45:29.935Z,25.2
2019-06-07T08:50:41.502Z,25.3
2019-06-07T08:56:06.792Z,25.3
2019-06-07T09:01:22.368Z,25.3
2019-06-07T09:07:14.564Z,25.3
2019-06-07T09:12:32.716Z,25.3
2019-06-07T09:18:41.786Z,25.3
2019-06-07T09:24:04.008Z,25.3
2019-06-07T09:29:22.797Z,25.3
2019-06-07T09:34:34.083Z,25.3
2019-06-07T09:39:45.364Z,25.3
2019-06-07T09:45:03.209Z,25.4
2019-06-07T09:50:19.708Z,25.4
2019-06-07T09:55:30.706Z,25.4
2019-06-07T10:00:43.210Z,25.4
2019-06-07T10:05:54.466Z,25.4
2019-06-07T10:11:07.213Z,25.4
2019-06-07T10:16:18.189Z,25.4
2019-06-07T10:21:29.756Z,25.4
2019-06-07T10:26:41.890Z,25.5
2019-06-07T10:52:57.219Z,25.5
2019-06-07T10:58:09.386Z,25.5
2019-06-07T11:03:21.692Z,25.5
2019-06-07T11:08:32.417Z,25.5
2019-06-07T11:13:43.708Z,25.5
2019-06-07T11:18:54.434Z,25.5
2019-06-07T11:24:06.304Z,25.6
2019-06-07T11:29:19.048Z,25.6
2019-06-07T11:34:30.146Z,25.6
2019-06-07T11:39:41.156Z,25.6
2019-06-07T11:44:57.444Z,25.6
2019-06-07T11:50:09.718Z,25.6
2019-06-07T11:55:23.124Z,25.6
2019-06-07T12:00:34.638Z,25.6
2019-06-07T12:05:45.929Z,25.6
2019-06-07T12:10:57.209Z,25.6
2019-06-07T12:16:11.139Z,25.6
2019-06-07T12:21:22.539Z,25.6
2019-06-07T12:26:34.084Z,25.6
2019-06-07T12:31:45.104Z,25.6
2019-06-07T12:36:56.138Z,25.6
2019-06-07T12:42:07.831Z,25.6
2019-06-07T12:47:19.401Z,25.6
2019-06-07T12:52:31.753Z,25.6
2019-06-07T12:57:42.461Z,25.6
2019-06-07T13:02:53.471Z,25.6
2019-06-07T13:08:04.764Z,25.6
2019-06-07T13:13:15.988Z,25.6
2019-06-07T13:18:26.730Z,25.6
2019-06-07T13:23:39.541Z,25.6
2019-06-07T13:28:55.566Z,25.6
2019-06-07T13:34:06.851Z,25.6
2019-06-07T13:39:22.394Z,25.6
2019-06-07T13:44:38.185Z,25.6
2019-06-07T13:49:49.750Z,25.7
2019-06-07T13:55:02.896Z,25.6
2019-06-07T14:00:14.464Z,25.6
2019-06-07T14:05:27.505Z,25.7
2019-06-07T14:10:40.062Z,25.6
2019-06-07T14:15:51.349Z,25.7
2019-06-07T14:21:02.975Z,25.7
2019-06-07T14:26:14.599Z,25.7
2019-06-07T14:31:27.976Z,25.7
2019-06-07T14:36:39.058Z,25.7
2019-06-07T14:42:10.313Z,25.7
2019-06-07T14:47:23.671Z,25.7
2019-06-07T14:52:35.456Z,25.7
2019-06-07T14:57:47.050Z,25.7
2019-06-07T15:02:58.622Z,25.7
2019-06-07T15:08:09.633Z,25.7
2019-06-07T15:13:20.903Z,25.7
2019-06-07T15:18:34.089Z,25.7
2019-06-07T15:23:46.595Z,25.7
2019-06-07T15:28:57.351Z,25.7
2019-06-07T15:34:08.080Z,25.7
2019-06-07T15:39:19.099Z,25.7
2019-06-07T15:44:31.057Z,25.8
2019-06-07T15:49:42.377Z,25.7
2019-06-07T15:54:54.152Z,25.8
2019-06-07T16:00:05.723Z,25.8
2019-06-07T16:05:17.294Z,25.8
2019-06-07T16:10:28.925Z,25.9
2019-06-07T16:15:43.174Z,25.9
2019-06-07T16:20:54.558Z,25.9
2019-06-07T16:26:06.115Z,25.9
2019-06-07T16:31:17.685Z,26
2019-06-07T16:36:29.523Z,26
2019-06-07T16:41:40.821Z,26
2019-06-07T16:46:53.608Z,26
2019-06-07T16:52:04.893Z,26
2019-06-07T16:57:16.505Z,26
2019-06-07T17:02:28.029Z,26
2019-06-07T17:07:42.255Z,26
2019-06-07T17:12:55.882Z,26
2019-06-07T17:18:07.449Z,25.9
2019-06-07T17:23:19.032Z,25.9
2019-06-07T17:28:30.339Z,25.9
2019-06-07T17:33:42.161Z,25.9
2019-06-07T17:38:54.731Z,25.9
2019-06-07T17:44:06.511Z,25.9
2019-06-07T17:49:17.864Z,25.9
2019-06-07T17:54:29.427Z,25.9
2019-06-07T17:59:42.568Z,25.9
2019-06-07T18:04:55.414Z,25.9
2019-06-07T18:10:07.025Z,25.9
2019-06-07T18:15:18.524Z,25.9
2019-06-07T18:20:30.096Z,25.9
2019-06-07T18:25:41.673Z,26
2019-06-07T18:30:53.041Z,26
2019-06-07T18:36:05.641Z,26
2019-06-07T18:41:17.210Z,26
2019-06-07T18:46:28.848Z,26
2019-06-07T18:51:40.676Z,26
2019-06-07T18:56:59.317Z,26
2019-06-07T19:02:14.139Z,26
2019-06-07T19:07:25.718Z,26
2019-06-07T19:12:40.829Z,26
2019-06-07T19:17:53.885Z,26
2019-06-07T19:23:05.573Z,26
2019-06-07T19:28:42.591Z,26
2019-06-07T19:34:02.016Z,26
2019-06-07T19:39:15.582Z,26
2019-06-07T19:44:27.169Z,26
2019-06-07T19:49:38.464Z,26
2019-06-07T19:54:50.109Z,26
2019-06-07T20:00:13.768Z,26
2019-06-07T20:05:32.994Z,25.9
2019-06-07T20:10:48.560Z,26
2019-06-07T20:16:05.092Z,25.9
2019-06-07T20:21:16.463Z,26
2019-06-07T20:26:32.507Z,25.9
2019-06-07T20:31:46.391Z,26
2019-06-07T20:36:58.418Z,26
2019-06-07T20:42:11.013Z,26
2019-06-07T20:47:22.299Z,26
2019-06-07T20:52:33.588Z,26
2019-06-07T20:57:48.142Z,26
2019-06-07T21:03:03.197Z,26
2019-06-07T21:08:14.612Z,26
2019-06-07T21:13:28.898Z,26
2019-06-07T21:18:40.412Z,26
2019-06-07T21:23:51.981Z,26
2019-06-07T21:29:04.888Z,26
2019-06-07T21:34:16.162Z,26
2019-06-07T21:39:27.733Z,26
2019-06-07T21:44:39.285Z,26
2019-06-07T21:49:50.863Z,26
2019-06-07T21:55:03.100Z,26
2019-06-07T22:00:15.462Z,26
2019-06-07T22:05:27.175Z,26
2019-06-07T22:10:39.036Z,26
2019-06-07T22:15:50.740Z,26
2019-06-07T22:21:02.332Z,26
2019-06-07T22:26:15.458Z,26
2019-06-07T22:31:26.658Z,26
2019-06-07T22:36:41.960Z,26
2019-06-07T22:41:53.683Z,26
2019-06-07T22:47:05.323Z,26
2019-06-07T22:52:18.410Z,26
2019-06-07T22:57:32.578Z,26
2019-06-07T23:02:44.212Z,26
2019-06-07T23:07:58.523Z,26
2019-06-07T23:13:13.696Z,25.9
2019-06-07T23:18:26.289Z,25.9
2019-06-07T23:23:37.846Z,25.9
2019-06-07T23:28:49.402Z,26
2019-06-07T23:34:00.696Z,26
2019-06-07T23:39:13.256Z,26
2019-06-07T23:44:26.157Z,26
2019-06-07T23:49:37.169Z,26
2019-06-07T23:54:47.900Z,26
2019-06-07T23:59:59.461Z,26
